createdAt,value
2023-03-26T00:02:47.483Z,3.17
2023-03-26T00:07:51.587Z,3.40
2023-03-26T00:12:54.097Z,2.92
2023-03-26T00:17:56.988Z,3.30
2023-03-26T00:23:02.391Z,3.10
2023-03-26T00:28:06.221Z,2.97
2023-03-26T00:33:11.730Z,3.47
2023-03-26T00:38:16.054Z,2.87
2023-03-26T00:43:19.809Z,2.72
2023-03-26T00:48:31.512Z,3.17
2023-03-26T00:53:42.769Z,3.00
2023-03-26T00:58:46.010Z,3.70
2023-03-26T01:04:04.919Z,3.08
2023-03-26T01:09:16.876Z,4.27
2023-03-26T01:14:23.448Z,4.40
2023-03-26T01:19:30.390Z,4.45
2023-03-26T01:24:34.258Z,3.93
2023-03-26T01:29:44.016Z,3.93
2023-03-26T01:34:57.360Z,3.58
2023-03-26T01:40:06.939Z,3.25
2023-03-26T01:45:14.355Z,2.90
2023-03-26T01:50:17.129Z,3.30
2023-03-26T01:55:22.886Z,3.08
2023-03-26T02:00:30.298Z,3.10
2023-03-26T02:05:37.823Z,2.78
2023-03-26T02:10:45.004Z,3.28
2023-03-26T02:15:57.075Z,3.20
2023-03-26T02:20:59.749Z,3.23
2023-03-26T02:26:06.765Z,3.15
2023-03-26T02:31:11.133Z,3.40
2023-03-26T02:36:14.709Z,3.03
2023-03-26T02:41:18.633Z,3.72
2023-03-26T02:46:21.353Z,3.20
2023-03-26T02:51:25.141Z,3.20
2023-03-26T02:56:29.739Z,2.95
2023-03-26T03:01:34.734Z,3.47
2023-03-26T03:06:38.206Z,3.30
2023-03-26T03:11:42.376Z,3.47
2023-03-26T03:16:45.297Z,3.33
2023-03-26T03:21:47.851Z,3.17
2023-03-26T03:26:56.736Z,2.73
2023-03-26T03:32:00.064Z,2.55
2023-03-26T03:37:02.586Z,2.40
2023-03-26T03:42:06.483Z,2.40
2023-03-26T03:47:13.505Z,2.20
2023-03-26T03:52:16.335Z,2.60
2023-03-26T03:57:21.905Z,2.77
2023-03-26T04:02:30.254Z,2.60
2023-03-26T04:07:34.112Z,2.72
2023-03-26T04:12:38.040Z,3.03
2023-03-26T04:17:42.915Z,3.17
2023-03-26T04:22:45.791Z,3.05
2023-03-26T04:27:49.942Z,2.60
2023-03-26T04:32:53.071Z,2.90
2023-03-26T04:37:56.243Z,2.85
2023-03-26T04:43:02.267Z,2.75
2023-03-26T04:48:07.246Z,2.50
2023-03-26T04:53:13.941Z,2.80
2023-03-26T04:58:18.411Z,3.15
2023-03-26T05:03:21.184Z,3.47
2023-03-26T05:08:23.734Z,2.73
2023-03-26T05:13:27.631Z,2.88
2023-03-26T05:18:32.230Z,2.58
2023-03-26T05:23:34.728Z,2.60
2023-03-26T05:28:38.610Z,2.20
2023-03-26T05:33:41.210Z,2.13
2023-03-26T05:38:47.243Z,1.70
2023-03-26T05:43:51.165Z,1.43
2023-03-26T05:48:53.938Z,1.60
2023-03-26T05:53:56.459Z,1.50
2023-03-26T05:59:00.417Z,1.93
2023-03-26T06:04:03.011Z,1.55
2023-03-26T06:09:06.587Z,1.40
2023-03-26T06:14:10.420Z,1.70
2023-03-26T06:19:12.946Z,1.55
2023-03-26T06:24:16.446Z,2.03
2023-03-26T06:29:20.849Z,2.23
2023-03-26T06:34:23.340Z,1.80
2023-03-26T06:39:26.308Z,1.92
2023-03-26T06:44:30.330Z,1.75
2023-03-26T06:49:34.298Z,1.47
2023-03-26T06:54:36.832Z,1.20
2023-03-26T06:59:40.680Z,1.20
2023-03-26T07:04:43.170Z,1.00
2023-03-26T07:09:45.654Z,1.40
2023-03-26T07:14:49.716Z,1.40
2023-03-26T07:19:53.239Z,1.50
2023-03-26T07:24:56.566Z,1.50
2023-03-26T07:30:06.439Z,1.55
2023-03-26T07:35:15.547Z,1.33
2023-03-26T07:40:29.419Z,1.23
2023-03-26T07:45:39.676Z,1.00
2023-03-26T07:50:42.802Z,1.08
2023-03-26T07:55:53.397Z,1.30
2023-03-26T08:01:03.838Z,1.10
2023-03-26T08:06:14.899Z,1.40
2023-03-26T08:11:31.082Z,1.27
2023-03-26T08:16:42.752Z,1.57
2023-03-26T08:21:51.523Z,1.45
2023-03-26T08:27:01.580Z,1.67
2023-03-26T08:32:13.739Z,1.60
2023-03-26T08:37:16.340Z,2.00
2023-03-26T08:42:39.860Z,1.45
2023-03-26T08:48:21.965Z,1.50
2023-03-26T08:53:59.032Z,1.27
2023-03-26T08:59:34.804Z,1.83
2023-03-26T09:04:58.996Z,2.07
2023-03-26T09:10:33.273Z,1.80
2023-03-26T09:15:49.970Z,1.80
2023-03-26T09:21:19.071Z,2.28
2023-03-26T09:26:40.198Z,1.87
2023-03-26T09:32:15.905Z,1.75
2023-03-26T09:37:26.570Z,1.92
2023-03-26T09:42:43.693Z,1.60
2023-03-26T09:48:19.948Z,2.20
2023-03-26T09:53:41.320Z,1.67
2023-03-26T09:59:05.134Z,1.53
2023-03-26T10:04:48.526Z,2.00
2023-03-26T10:10:00.707Z,1.50
2023-03-26T10:15:18.981Z,1.83
2023-03-26T10:20:33.580Z,1.70
2023-03-26T10:25:50.461Z,1.95
2023-03-26T10:31:08.707Z,1.70
2023-03-26T10:36:26.861Z,2.17
2023-03-26T10:41:38.519Z,1.90
2023-03-26T10:46:58.552Z,2.55
2023-03-26T10:52:04.725Z,2.37
2023-03-26T10:57:15.772Z,1.80
2023-03-26T11:02:29.710Z,1.90
2023-03-26T11:07:41.581Z,2.15
2023-03-26T11:12:48.254Z,2.07
2023-03-26T11:18:01.996Z,1.92
2023-03-26T11:23:24.900Z,1.83
2023-03-26T11:28:38.903Z,1.87
2023-03-26T11:33:47.823Z,1.83
2023-03-26T11:38:51.800Z,2.00
2023-03-26T11:43:58.510Z,1.60
2023-03-26T11:49:09.107Z,1.80
2023-03-26T11:54:13.248Z,1.70
2023-03-26T11:59:21.257Z,1.90
2023-03-26T12:04:34.929Z,1.60
2023-03-26T12:09:37.544Z,2.20
2023-03-26T12:14:43.834Z,1.95
2023-03-26T12:19:48.059Z,1.70
2023-03-26T12:25:02.741Z,1.42
2023-03-26T12:30:13.812Z,2.30
2023-03-26T12:35:20.000Z,1.90
2023-03-26T12:40:31.618Z,1.90
2023-03-26T12:45:40.868Z,2.10
2023-03-26T12:51:00.208Z,1.90
2023-03-26T12:56:12.557Z,1.60
2023-03-26T13:01:23.266Z,1.80
2023-03-26T13:06:59.154Z,1.75
2023-03-26T13:12:10.995Z,2.13
2023-03-26T13:17:20.893Z,1.90
2023-03-26T13:22:32.524Z,1.50
2023-03-26T13:27:42.933Z,1.30
2023-03-26T13:32:58.598Z,1.93
2023-03-26T13:38:10.460Z,1.33
2023-03-26T13:43:38.977Z,1.55
2023-03-26T13:48:47.931Z,1.37
2023-03-26T13:53:56.772Z,1.58
2023-03-26T13:59:04.068Z,1.55
2023-03-26T14:04:15.967Z,1.60
2023-03-26T14:09:25.111Z,1.80
2023-03-26T14:14:34.683Z,1.50
2023-03-26T14:19:55.799Z,1.60
2023-03-26T14:25:14.233Z,1.60
2023-03-26T14:30:44.039Z,1.63
2023-03-26T14:35:59.042Z,2.53
2023-03-26T14:41:20.800Z,1.47
2023-03-26T14:46:37.883Z,1.48
2023-03-26T14:51:55.050Z,1.38
2023-03-26T14:57:27.066Z,2.00
2023-03-26T15:03:03.073Z,1.83
2023-03-26T15:08:54.129Z,1.20
2023-03-26T15:14:11.933Z,2.20
2023-03-26T15:19:56.034Z,1.50
2023-03-26T15:25:31.805Z,1.50
2023-03-26T15:31:16.502Z,1.23
2023-03-26T15:36:50.957Z,1.47
2023-03-26T15:41:59.309Z,1.45
2023-03-26T15:47:27.422Z,1.58
2023-03-26T15:52:36.377Z,1.47
2023-03-26T15:57:43.907Z,2.13
2023-03-26T16:02:58.109Z,1.60
2023-03-26T16:08:08.541Z,1.40
2023-03-26T16:13:38.942Z,1.23
2023-03-26T16:18:43.953Z,1.35
2023-03-26T16:23:55.077Z,1.27
2023-03-26T16:29:14.104Z,1.20
2023-03-26T16:34:28.354Z,1.10
2023-03-26T16:39:42.148Z,1.27
2023-03-26T16:44:51.670Z,1.40
2023-03-26T16:50:09.612Z,1.50
2023-03-26T16:55:20.981Z,0.90
2023-03-26T17:00:36.550Z,1.17
2023-03-26T17:05:56.880Z,1.50
2023-03-26T17:11:06.177Z,1.38
2023-03-26T17:16:18.147Z,1.45
2023-03-26T17:21:46.015Z,1.20
2023-03-26T17:26:58.580Z,1.58
2023-03-26T17:32:08.505Z,1.52
2023-03-26T17:37:31.432Z,1.50
2023-03-26T17:42:37.448Z,1.48
2023-03-26T17:47:44.861Z,1.05
2023-03-26T17:52:57.386Z,1.40
2023-03-26T17:58:02.049Z,1.30
2023-03-26T18:03:12.784Z,1.60
2023-03-26T18:08:41.229Z,1.45
2023-03-26T18:14:23.305Z,1.50
2023-03-26T18:19:26.576Z,1.40
2023-03-26T18:24:34.396Z,1.27
2023-03-26T18:29:38.040Z,1.80
2023-03-26T18:34:49.787Z,1.70
2023-03-26T18:40:02.258Z,1.33
2023-03-26T18:45:09.481Z,1.80
2023-03-26T18:50:16.504Z,3.10
2023-03-26T18:55:20.769Z,3.05
2023-03-26T19:00:26.079Z,3.20
2023-03-26T19:05:29.305Z,3.47
2023-03-26T19:10:34.407Z,3.00
2023-03-26T19:15:36.943Z,3.13
2023-03-26T19:20:43.913Z,2.30
2023-03-26T19:25:50.629Z,2.60
2023-03-26T19:30:57.448Z,1.77
2023-03-26T19:36:05.183Z,1.80
2023-03-26T19:41:21.671Z,1.67
2023-03-26T19:46:25.480Z,1.63
2023-03-26T19:51:33.621Z,1.70
2023-03-26T19:56:37.484Z,1.60
2023-03-26T20:01:40.269Z,1.88
2023-03-26T20:06:44.308Z,1.70
2023-03-26T20:11:48.355Z,2.13
2023-03-26T20:16:51.210Z,1.90
2023-03-26T20:21:54.578Z,2.10
2023-03-26T20:26:58.445Z,1.63
2023-03-26T20:32:01.116Z,1.90
2023-03-26T20:37:04.082Z,2.08
2023-03-26T20:42:08.313Z,1.95
2023-03-26T20:47:12.619Z,2.00
2023-03-26T20:52:16.017Z,1.70
2023-03-26T20:57:20.173Z,1.77
2023-03-26T21:02:23.401Z,1.57
2023-03-26T21:07:26.028Z,1.83
2023-03-26T21:12:32.506Z,1.33
2023-03-26T21:17:36.288Z,1.30
2023-03-26T21:22:46.034Z,1.50
2023-03-26T21:28:02.308Z,1.35
2023-03-26T21:33:05.439Z,1.50
2023-03-26T21:38:09.334Z,1.40
2023-03-26T21:43:13.793Z,1.40
2023-03-26T21:48:16.892Z,1.30
2023-03-26T21:53:19.908Z,1.40
2023-03-26T21:58:41.773Z,1.40
2023-03-26T22:03:55.956Z,1.60
2023-03-26T22:08:59.359Z,1.40
2023-03-26T22:14:03.217Z,1.50
2023-03-26T22:19:07.195Z,0.90
2023-03-26T22:24:09.729Z,1.20
2023-03-26T22:29:14.074Z,0.90
2023-03-26T22:34:16.670Z,1.10
2023-03-26T22:39:19.158Z,1.05
2023-03-26T22:44:22.991Z,1.20
2023-03-26T22:49:27.413Z,1.00
2023-03-26T22:54:29.930Z,1.27
2023-03-26T22:59:33.796Z,1.20
2023-03-26T23:04:37.575Z,1.23
2023-03-26T23:09:40.185Z,1.17
2023-03-26T23:14:44.015Z,1.10
2023-03-26T23:19:46.708Z,1.03
2023-03-26T23:24:49.383Z,1.00
2023-03-26T23:29:53.334Z,1.20
2023-03-26T23:34:56.344Z,1.13
2023-03-26T23:40:00.405Z,1.02
2023-03-26T23:45:04.378Z,1.08
2023-03-26T23:50:08.054Z,1.00
2023-03-26T23:55:10.831Z,1.00
